Search for airport 
image banner adimage banner adimage banner ad
image banner ad

NV57 - Renown Rgnl Medical Center

Located in Reno, United States

ICAO - NV57, IATA -

Data provided by Airmate  

General information

Coordinates: N39°31'30" W119°47'44"
Elevation is 4504 feet MSL.
Magnetic variation is 16° East
View others Airports in Nevada

Operational data

Special qualification required
Current time UTC:
Current local time:
Weather at : KRNO - Reno/Tahoe Intl ( 4 km )
METAR: KRNO 130255Z 29017KT 10SM FEW060 FEW160 27/03 A2996 RMK AO2 SLP091 T02670033 53001
TAF: KRNO 122320Z 1300/1324 28014G24KT P6SM FEW100 FM130600 VRB04KT P6SM SKC FM131800 21009KT P6SM SKC FM132100 27014G24KT P6SM FEW100
View NOTAMs / SUP AIP / TFR affecting this airport [VIEW]
Communications frequencies: [VIEW]

Runways:

Airport contact information

Address: Reno United States

Satellite view of NV57